East TN State Univ, Tennessee
Current Conditions -  °F | °C
As of 6:53 PM on Monday 20 Oct 2014 (Local Time) from KTRI Reporting Station
Overcast Overcast  
Wind Chill: 16°   Ceiling: 12000
Heat Index: 16°   Visibility: 10mi
Dew Point:   Wind: 3mph
Humidity: 67%   Direction: 270°W
Pressure: 29.98"   Gusts: NA
Location:  36.3658°N, 82.4151°W
Report Text: KTRI 202253Z 27003KT 10SM FEW095 OVC120 16/09 A2998 RMK AO2 SLP140 T01560094
Loading
Personal Weather Stations






























Interactive Weather Map
Tropical Storm Tracking
New forecast layout! Learn more

10-Day Weather Forecast

Advertisements
Track Severe Weather on mobile